Time;durP1;ratioP1;P1;durP2;ratioP2;P2;SDS_P1;SDS_P2;PMS_P1;PMS_P2;Temp;Humidity;BMP_temperature;BMP_pressure;BME280_temperature;BME280_humidity;BME280_pressure;Samples;Min_cycle;Max_cycle;Signal;HPM_P1;HPM_P2
2021/08/10 00:00:56;;;;;;;5.45;1.88;;;14.00;83.00;;;;;;5024283;28;20044;-66
2021/08/10 00:03:22;;;;;;;3.03;1.33;;;13.90;83.00;;;;;;5030603;28;20049;-66
2021/08/10 00:05:48;;;;;;;1.40;1.30;;;13.90;83.30;;;;;;5030415;28;20456;-65
2021/08/10 00:08:20;;;;;;;2.53;1.42;;;13.90;83.20;;;;;;5029698;28;20021;-66
2021/08/10 00:10:47;;;;;;;1.67;1.58;;;13.80;83.30;;;;;;5031340;28;20041;-66
2021/08/10 00:13:15;;;;;;;1.55;1.20;;;13.80;83.20;;;;;;5032734;28;20018;-66
2021/08/10 00:15:41;;;;;;;2.20;1.52;;;13.80;83.10;;;;;;5039010;28;20401;-66
2021/08/10 00:18:07;;;;;;;1.90;1.65;;;13.80;83.50;;;;;;5032931;28;20025;-66
2021/08/10 00:20:34;;;;;;;1.83;1.60;;;13.70;83.80;;;;;;5009719;28;20548;-66
2021/08/10 00:23:00;;;;;;;1.60;1.50;;;13.70;84.40;;;;;;5028556;28;20029;-66
2021/08/10 00:25:26;;;;;;;1.60;1.50;;;13.70;84.20;;;;;;5030680;28;20068;-66
2021/08/10 00:27:52;;;;;;;1.60;1.50;;;13.70;84.00;;;;;;5029939;28;20037;-66
2021/08/10 00:30:18;;;;;;;2.63;1.48;;;13.70;84.10;;;;;;5028649;28;20040;-66
2021/08/10 00:32:43;;;;;;;2.42;1.52;;;13.70;84.60;;;;;;5029656;28;20009;-66
2021/08/10 00:35:09;;;;;;;1.85;1.73;;;13.70;84.60;;;;;;5030542;28;20144;-66
2021/08/10 00:37:35;;;;;;;1.67;1.52;;;13.70;84.50;;;;;;5030210;28;20036;-66
2021/08/10 00:40:01;;;;;;;1.30;1.20;;;13.60;84.40;;;;;;5031205;28;20037;-66
2021/08/10 00:42:26;;;;;;;1.20;1.20;;;13.60;84.30;;;;;;5014558;28;20052;-66
2021/08/10 00:44:52;;;;;;;2.28;1.10;;;13.60;84.70;;;;;;5029624;28;20116;-66
2021/08/10 00:47:18;;;;;;;3.17;1.40;;;13.50;84.90;;;;;;5036191;28;20643;-66
2021/08/10 00:49:43;;;;;;;1.20;1.10;;;13.50;84.80;;;;;;5033761;28;20021;-66
2021/08/10 00:52:09;;;;;;;2.78;1.50;;;13.40;84.70;;;;;;5034168;28;20108;-66
2021/08/10 00:54:35;;;;;;;2.30;1.60;;;13.40;85.50;;;;;;5030656;28;20693;-66
2021/08/10 00:57:01;;;;;;;4.13;1.65;;;13.30;85.70;;;;;;5026600;28;20444;-66
2021/08/10 00:59:27;;;;;;;3.17;1.63;;;13.30;86.10;;;;;;5024830;28;20520;-66
2021/08/10 01:01:53;;;;;;;1.92;1.80;;;13.20;86.10;;;;;;5025210;28;20049;-67
2021/08/10 01:04:18;;;;;;;3.13;1.90;;;13.20;87.20;;;;;;5024843;28;20140;-67
2021/08/10 01:07:03;;;;;;;4.13;1.80;;;13.20;86.00;;;;;;5024199;28;20041;-67
2021/08/10 01:09:46;;;;;;;1.67;1.50;;;13.10;86.80;;;;;;5012832;28;20076;-67
2021/08/10 01:12:44;;;;;;;2.30;1.60;;;13.20;86.20;;;;;;5030282;28;20039;-69
2021/08/10 01:15:19;;;;;;;3.63;1.90;;;13.20;86.10;;;;;;5008144;28;20296;-68
2021/08/10 01:18:13;;;;;;;2.58;1.48;;;13.20;86.30;;;;;;5035125;28;20069;-68
2021/08/10 01:21:16;;;;;;;2.58;2.38;;;13.20;86.20;;;;;;5027912;28;20554;-68
2021/08/10 01:23:43;;;;;;;1.63;1.52;;;13.20;86.00;;;;;;5028786;28;20029;-68
2021/08/10 01:26:46;;;;;;;2.15;1.60;;;13.10;86.30;;;;;;5029980;28;20469;-67
2021/08/10 01:29:45;;;;;;;2.13;1.42;;;13.00;87.10;;;;;;5031924;28;20017;-67
2021/08/10 01:32:11;;;;;;;3.72;1.70;;;13.00;87.30;;;;;;5024627;28;20049;-68
2021/08/10 01:34:46;;;;;;;1.60;1.50;;;13.00;87.10;;;;;;5023982;28;20041;-67
2021/08/10 01:37:19;;;;;;;1.67;1.58;;;13.00;86.80;;;;;;5029848;28;20359;-67
2021/08/10 01:39:49;;;;;;;2.13;1.60;;;13.10;86.90;;;;;;5013289;28;20087;-68
2021/08/10 01:42:16;;;;;;;1.75;1.65;;;13.10;86.50;;;;;;5028981;28;20123;-67
2021/08/10 01:44:43;;;;;;;1.90;1.45;;;13.10;86.50;;;;;;5030858;28;20041;-67
2021/08/10 01:47:11;;;;;;;2.10;1.67;;;13.00;85.20;;;;;;5018571;28;20048;-68
2021/08/10 01:49:39;;;;;;;3.20;1.77;;;13.10;86.00;;;;;;5022277;28;20549;-67
2021/08/10 01:52:06;;;;;;;;;;;13.00;86.50;;;;;;5014698;28;20468;-67
2021/08/10 01:54:34;;;;;;;2.13;1.77;;;13.00;86.60;;;;;;5028275;28;20004;-67
2021/08/10 01:57:01;;;;;;;1.75;1.65;;;13.10;86.80;;;;;;5031466;28;20102;-68
2021/08/10 01:59:27;;;;;;;1.40;1.30;;;13.00;86.80;;;;;;5031630;28;20029;-68
2021/08/10 02:01:54;;;;;;;1.83;1.73;;;12.80;87.30;;;;;;5038685;28;20044;-67
2021/08/10 02:04:22;;;;;;;1.92;1.50;;;12.70;88.70;;;;;;5028295;28;20072;-67
2021/08/10 02:06:48;;;;;;;1.80;1.60;;;12.60;89.30;;;;;;5016140;28;20029;-67
2021/08/10 02:09:17;;;;;;;2.17;1.70;;;12.60;89.70;;;;;;5030349;28;20053;-67
2021/08/10 02:11:43;;;;;;;2.00;1.80;;;12.50;89.30;;;;;;5031398;28;20028;-68
2021/08/10 02:14:10;;;;;;;2.75;1.77;;;12.60;89.10;;;;;;5038539;28;20068;-67
2021/08/10 02:16:37;;;;;;;3.63;1.75;;;12.50;89.20;;;;;;5014883;28;20025;-68
2021/08/10 02:19:02;;;;;;;1.65;1.55;;;12.50;89.30;;;;;;5033797;28;20493;-68
2021/08/10 02:21:45;;;;;;;1.70;1.60;;;12.70;88.80;;;;;;5034446;28;20044;-67
2021/08/10 02:24:25;;;;;;;1.88;1.77;;;12.70;88.70;;;;;;5037994;28;20033;-67
2021/08/10 02:26:59;;;;;;;4.93;1.58;;;12.50;88.70;;;;;;5014140;28;20085;-67
2021/08/10 02:29:28;;;;;;;2.33;1.80;;;12.50;89.00;;;;;;5034271;28;20033;-67
2021/08/10 02:31:54;;;;;;;5.50;1.60;;;12.60;88.30;;;;;;5026548;28;20038;-67
2021/08/10 02:34:21;;;;;;;1.88;1.40;;;12.70;87.40;;;;;;5038742;28;20550;-68
2021/08/10 02:36:51;;;;;;;1.65;1.33;;;12.70;87.00;;;;;;5029566;28;20441;-67
2021/08/10 02:39:18;;;;;;;2.15;1.40;;;12.70;86.60;;;;;;5036033;28;20041;-67
2021/08/10 02:41:45;;;;;;;1.83;1.58;;;12.70;86.70;;;;;;5040067;28;20025;-67
2021/08/10 02:44:11;;;;;;;3.28;2.08;;;12.60;87.10;;;;;;5031691;28;20053;-67
2021/08/10 02:46:39;;;;;;;3.28;1.52;;;12.60;87.80;;;;;;5034037;28;20029;-68
2021/08/10 02:49:08;;;;;;;2.20;2.00;;;12.50;88.00;;;;;;5034758;28;20025;-67
2021/08/10 02:51:34;;;;;;;2.60;1.70;;;12.50;88.00;;;;;;5034199;28;20036;-67
2021/08/10 02:54:00;;;;;;;2.25;1.65;;;12.40;88.40;;;;;;5027871;28;20382;-68
2021/08/10 02:56:33;;;;;;;3.97;1.80;;;12.20;89.10;;;;;;5031361;28;20028;-67
2021/08/10 02:59:05;;;;;;;2.20;1.95;;;12.30;89.00;;;;;;5023773;28;20036;-68
2021/08/10 03:01:41;;;;;;;1.60;1.50;;;12.20;89.00;;;;;;5037670;28;20037;-67
2021/08/10 03:04:08;;;;;;;1.70;1.60;;;12.20;89.10;;;;;;5038523;28;20127;-67
2021/08/10 03:06:34;;;;;;;2.40;1.70;;;12.20;89.90;;;;;;5011900;28;20029;-67
2021/08/10 03:09:02;;;;;;;3.08;1.75;;;12.10;89.20;;;;;;5030884;28;20030;-67
2021/08/10 03:11:32;;;;;;;2.03;1.77;;;12.10;89.60;;;;;;5030869;28;20021;-67
2021/08/10 03:13:59;;;;;;;3.88;2.15;;;12.10;89.60;;;;;;5027857;28;20359;-67
2021/08/10 03:16:26;;;;;;;2.78;1.92;;;12.20;89.20;;;;;;5028415;28;20029;-67
2021/08/10 03:18:53;;;;;;;1.70;1.60;;;12.40;88.80;;;;;;5031098;28;20783;-67
2021/08/10 03:21:22;;;;;;;1.92;1.70;;;12.30;88.80;;;;;;5012173;28;20029;-67
2021/08/10 03:23:49;;;;;;;3.65;1.70;;;12.30;89.40;;;;;;5034099;28;20108;-67
2021/08/10 03:26:16;;;;;;;1.80;1.70;;;12.30;90.00;;;;;;5029669;28;20025;-67
2021/08/10 03:28:44;;;;;;;2.42;2.00;;;12.20;90.30;;;;;;5025162;28;20021;-67
2021/08/10 03:31:12;;;;;;;2.13;1.92;;;12.20;90.60;;;;;;5021461;28;20050;-67
2021/08/10 03:33:39;;;;;;;3.67;1.67;;;12.30;90.30;;;;;;5025734;28;20029;-67
2021/08/10 03:36:06;;;;;;;4.90;1.75;;;12.40;90.10;;;;;;5032609;28;20029;-68
2021/08/10 03:38:34;;;;;;;2.40;1.67;;;12.40;90.20;;;;;;5021604;28;20098;-67
2021/08/10 03:41:00;;;;;;;2.83;2.08;;;12.40;89.50;;;;;;5026461;28;20402;-68
2021/08/10 03:43:27;;;;;;;1.60;1.50;;;12.40;90.10;;;;;;5028304;28;20029;-67
2021/08/10 03:45:54;;;;;;;5.00;1.80;;;12.50;89.80;;;;;;5021000;28;20115;-68
2021/08/10 03:48:21;;;;;;;1.83;1.65;;;12.50;89.70;;;;;;5026048;28;20087;-67
2021/08/10 03:50:48;;;;;;;7.55;1.80;;;12.60;89.50;;;;;;5028472;28;20387;-67
2021/08/10 03:53:14;;;;;;;2.17;1.60;;;12.60;89.30;;;;;;5034338;28;20030;-68
2021/08/10 03:55:40;;;;;;;1.75;1.60;;;12.60;89.10;;;;;;5028449;28;20025;-67
2021/08/10 03:58:07;;;;;;;3.42;1.90;;;12.60;89.20;;;;;;5032526;28;20075;-68
2021/08/10 04:00:38;;;;;;;2.95;1.70;;;12.60;89.10;;;;;;5030423;28;20045;-67
2021/08/10 04:03:09;;;;;;;1.70;1.60;;;12.60;88.70;;;;;;5027588;28;20034;-67
2021/08/10 04:05:43;;;;;;;2.67;1.80;;;12.60;88.70;;;;;;5031508;28;20044;-67
2021/08/10 04:08:15;;;;;;;1.52;1.35;;;12.60;88.40;;;;;;5031681;28;20025;-67
2021/08/10 04:10:46;;;;;;;1.92;1.50;;;12.60;89.10;;;;;;5029459;28;20494;-68
2021/08/10 04:13:13;;;;;;;1.55;1.45;;;12.60;88.90;;;;;;5035180;28;20021;-68
2021/08/10 04:15:51;;;;;;;2.15;1.50;;;12.60;89.10;;;;;;5020112;28;20116;-67
2021/08/10 04:18:22;;;;;;;2.10;1.90;;;12.50;89.30;;;;;;5031039;28;20021;-67
2021/08/10 04:20:50;;;;;;;1.65;1.55;;;12.60;90.00;;;;;;5031456;28;20052;-67
2021/08/10 04:23:16;;;;;;;4.05;2.00;;;12.50;89.90;;;;;;5030532;28;20420;-67
2021/08/10 04:25:42;;;;;;;2.03;1.90;;;12.50;90.00;;;;;;5032525;28;20021;-67
2021/08/10 04:28:08;;;;;;;3.53;2.00;;;12.60;90.00;;;;;;5030556;28;20320;-67
2021/08/10 04:30:33;;;;;;;2.78;1.70;;;12.60;90.00;;;;;;5027373;28;20044;-68
2021/08/10 04:32:59;;;;;;;3.15;2.08;;;12.60;90.10;;;;;;5033257;28;20072;-67
2021/08/10 04:35:25;;;;;;;2.28;1.75;;;12.60;90.10;;;;;;5028657;28;20021;-68
2021/08/10 04:37:52;;;;;;;1.88;1.70;;;12.70;90.10;;;;;;5030347;28;20044;-68
2021/08/10 04:40:18;;;;;;;2.60;1.50;;;12.70;90.30;;;;;;5034606;28;20029;-67
2021/08/10 04:42:43;;;;;;;1.70;1.60;;;12.70;90.30;;;;;;5030182;28;20036;-67
2021/08/10 04:45:10;;;;;;;1.90;1.60;;;12.70;90.50;;;;;;5031766;28;20033;-68
2021/08/10 04:47:36;;;;;;;3.00;2.10;;;12.70;90.40;;;;;;5031484;28;20025;-68
2021/08/10 04:50:01;;;;;;;2.70;1.85;;;12.80;90.40;;;;;;5023034;28;20026;-68
2021/08/10 04:52:27;;;;;;;2.53;1.80;;;12.80;90.30;;;;;;5027798;28;20494;-67
2021/08/10 04:54:56;;;;;;;5.53;2.00;;;12.80;90.30;;;;;;5020393;28;20036;-67
2021/08/10 04:57:21;;;;;;;2.88;1.60;;;12.90;90.40;;;;;;5032704;28;20163;-68
2021/08/10 04:59:50;;;;;;;1.70;1.60;;;12.90;90.40;;;;;;5031726;28;20500;-68
2021/08/10 05:02:16;;;;;;;2.80;1.83;;;12.90;90.60;;;;;;5030866;28;20041;-67
2021/08/10 05:04:42;;;;;;;8.20;2.05;;;12.90;91.10;;;;;;5030697;28;20064;-68
2021/08/10 05:07:08;;;;;;;1.85;1.65;;;13.00;90.60;;;;;;5032005;28;20462;-68
2021/08/10 05:09:33;;;;;;;2.17;2.00;;;13.10;90.70;;;;;;5033799;28;20021;-67
2021/08/10 05:11:59;;;;;;;2.08;1.83;;;13.20;90.50;;;;;;5029496;28;20036;-67
2021/08/10 05:14:24;;;;;;;4.00;2.05;;;13.30;90.30;;;;;;5037203;28;20024;-68
2021/08/10 05:16:50;;;;;;;3.10;1.90;;;13.30;90.40;;;;;;5030945;28;20072;-68
2021/08/10 05:19:17;;;;;;;4.50;2.00;;;13.40;90.80;;;;;;5029672;28;20398;-68
2021/08/10 05:21:43;;;;;;;6.25;2.00;;;13.50;90.80;;;;;;5031694;28;20049;-68
2021/08/10 05:24:08;;;;;;;1.80;1.67;;;13.60;90.60;;;;;;5032326;28;20477;-67
2021/08/10 05:26:34;;;;;;;3.95;2.38;;;13.60;90.60;;;;;;5032193;28;20160;-67
2021/08/10 05:29:00;;;;;;;2.55;2.20;;;13.70;90.40;;;;;;5035602;28;20076;-67
2021/08/10 05:31:25;;;;;;;3.38;2.20;;;13.80;90.10;;;;;;5032614;28;20129;-68
2021/08/10 05:33:51;;;;;;;3.40;2.40;;;13.90;90.20;;;;;;5018115;28;20048;-67
2021/08/10 05:36:19;;;;;;;3.00;2.47;;;14.00;90.00;;;;;;5024835;28;20028;-67
2021/08/10 05:38:49;;;;;;;2.65;2.00;;;14.10;89.70;;;;;;5029440;28;20036;-68
2021/08/10 05:41:15;;;;;;;3.65;2.20;;;14.10;89.80;;;;;;5026316;28;20121;-67
2021/08/10 05:43:41;;;;;;;3.33;2.60;;;14.20;90.50;;;;;;5023390;28;20033;-68
2021/08/10 05:46:06;;;;;;;2.63;2.17;;;14.30;90.60;;;;;;5019475;28;20044;-66
2021/08/10 05:48:32;;;;;;;2.40;2.20;;;14.40;90.30;;;;;;5023446;28;20057;-67
2021/08/10 05:51:00;;;;;;;5.72;2.38;;;14.40;90.20;;;;;;5030242;28;20469;-66
2021/08/10 05:53:25;;;;;;;2.78;2.30;;;14.40;89.60;;;;;;5037155;28;20021;-67
2021/08/10 05:55:51;;;;;;;4.07;2.70;;;14.50;89.20;;;;;;5034015;28;20533;-66
2021/08/10 05:58:17;;;;;;;5.10;3.30;;;14.50;89.80;;;;;;5030726;28;20821;-66
2021/08/10 06:00:42;;;;;;;5.28;3.20;;;14.50;90.00;;;;;;5027161;28;20038;-66
2021/08/10 06:03:08;;;;;;;4.53;2.70;;;14.60;90.20;;;;;;5037684;28;20121;-66
2021/08/10 06:05:34;;;;;;;4.53;3.25;;;14.70;90.50;;;;;;5032706;28;20060;-66
2021/08/10 06:08:00;;;;;;;6.25;3.58;;;14.70;90.00;;;;;;5033482;28;20113;-66
2021/08/10 06:10:26;;;;;;;4.95;3.20;;;14.70;89.30;;;;;;5031753;28;20025;-66
2021/08/10 06:12:52;;;;;;;6.25;3.90;;;14.80;89.40;;;;;;5031701;28;20022;-66
2021/08/10 06:15:18;;;;;;;5.30;3.50;;;14.80;89.60;;;;;;5030673;28;20322;-66
2021/08/10 06:17:43;;;;;;;5.85;3.15;;;14.90;90.00;;;;;;5034961;28;20430;-66
2021/08/10 06:20:10;;;;;;;4.10;3.17;;;15.00;89.60;;;;;;5032829;28;20033;-66
2021/08/10 06:22:36;;;;;;;5.72;2.92;;;15.10;89.70;;;;;;5026748;28;20029;-66
2021/08/10 06:25:02;;;;;;;5.78;3.60;;;15.30;89.30;;;;;;5032305;28;20037;-67
2021/08/10 06:27:28;;;;;;;5.93;3.30;;;15.40;90.40;;;;;;5031025;28;20493;-66
2021/08/10 06:29:54;;;;;;;6.82;3.30;;;15.50;90.40;;;;;;5033220;28;20033;-66
2021/08/10 06:32:19;;;;;;;5.65;3.15;;;15.50;90.30;;;;;;5031640;28;20026;-67
2021/08/10 06:34:45;;;;;;;6.05;2.78;;;15.60;90.20;;;;;;5032866;28;20034;-67
2021/08/10 06:37:10;;;;;;;5.05;2.83;;;15.60;90.10;;;;;;5026850;28;20030;-67
2021/08/10 06:39:36;;;;;;;5.22;3.05;;;15.70;90.20;;;;;;5032801;28;20109;-67
2021/08/10 06:42:02;;;;;;;3.35;2.50;;;15.80;90.00;;;;;;5016135;28;20040;-67
2021/08/10 06:44:28;;;;;;;3.17;2.30;;;15.90;89.60;;;;;;5038109;28;20018;-66
2021/08/10 06:46:54;;;;;;;3.58;2.50;;;16.00;90.00;;;;;;5031543;28;20035;-66
2021/08/10 06:49:20;;;;;;;4.72;2.75;;;16.10;89.70;;;;;;5032227;28;20032;-67
2021/08/10 06:51:45;;;;;;;3.45;2.45;;;16.20;88.20;;;;;;5013279;28;20030;-66
2021/08/10 06:54:11;;;;;;;2.92;2.30;;;16.30;88.40;;;;;;5032794;28;20026;-66
2021/08/10 06:56:37;;;;;;;3.75;2.42;;;16.40;87.70;;;;;;5030765;28;20051;-66
2021/08/10 06:59:02;;;;;;;3.78;2.50;;;16.40;87.10;;;;;;5018188;28;20037;-66
2021/08/10 07:01:28;;;;;;;3.08;2.30;;;16.50;87.40;;;;;;5030316;28;20041;-66
2021/08/10 07:03:54;;;;;;;5.30;2.90;;;16.60;87.70;;;;;;5033495;28;20073;-66
2021/08/10 07:06:20;;;;;;;2.53;2.10;;;16.70;87.30;;;;;;5033813;28;20035;-66
2021/08/10 07:08:48;;;;;;;3.10;2.42;;;16.80;86.60;;;;;;5031461;28;20040;-66
2021/08/10 07:11:13;;;;;;;3.60;2.30;;;16.90;85.80;;;;;;5029385;28;20075;-66
2021/08/10 07:13:39;;;;;;;3.33;2.00;;;17.00;85.10;;;;;;5029037;28;20276;-66
2021/08/10 07:16:05;;;;;;;3.60;2.70;;;17.10;85.30;;;;;;5029422;28;20052;-66
2021/08/10 07:18:30;;;;;;;4.63;2.10;;;17.10;84.50;;;;;;5031752;28;20124;-66
2021/08/10 07:20:56;;;;;;;3.10;2.38;;;17.20;84.80;;;;;;5030077;28;20497;-65
2021/08/10 07:23:22;;;;;;;3.00;2.38;;;17.30;84.00;;;;;;5016988;28;20041;-66
2021/08/10 07:25:48;;;;;;;3.17;2.25;;;17.30;84.60;;;;;;5031680;28;20113;-66
2021/08/10 07:28:13;;;;;;;2.35;2.00;;;17.40;84.10;;;;;;5031757;28;20106;-66
2021/08/10 07:30:39;;;;;;;3.38;2.47;;;17.60;84.10;;;;;;5033538;28;20121;-66
2021/08/10 07:33:05;;;;;;;2.83;2.33;;;17.70;84.20;;;;;;5021033;28;20034;-66
2021/08/10 07:35:31;;;;;;;3.53;2.35;;;17.90;85.30;;;;;;5029020;28;20402;-66
2021/08/10 07:37:56;;;;;;;2.58;2.30;;;18.00;85.30;;;;;;5026828;28;20033;-66
2021/08/10 07:40:22;;;;;;;2.50;2.30;;;18.10;84.70;;;;;;5038536;28;20029;-67
2021/08/10 07:42:48;;;;;;;3.50;2.10;;;18.20;84.50;;;;;;5031171;28;20099;-67
2021/08/10 07:45:13;;;;;;;4.32;2.30;;;18.30;83.60;;;;;;5030976;28;20033;-67
2021/08/10 07:47:39;;;;;;;4.50;2.10;;;18.40;83.90;;;;;;5023733;28;20108;-67
2021/08/10 07:50:05;;;;;;;2.88;2.00;;;18.50;81.10;;;;;;5028882;28;20076;-66
2021/08/10 07:52:31;;;;;;;2.20;2.00;;;18.60;82.20;;;;;;5030071;28;20112;-66
2021/08/10 07:54:56;;;;;;;3.53;2.22;;;18.70;80.80;;;;;;5029535;28;20385;-67
2021/08/10 07:57:22;;;;;;;2.95;2.28;;;18.70;80.50;;;;;;5030050;28;20411;-67
2021/08/10 07:59:48;;;;;;;2.92;2.40;;;18.70;79.60;;;;;;5030798;28;20096;-67
2021/08/10 08:02:13;;;;;;;4.32;2.33;;;18.80;79.60;;;;;;5030131;28;20041;-68
2021/08/10 08:04:39;;;;;;;3.92;2.40;;;18.80;80.70;;;;;;5030913;28;20128;-67
2021/08/10 08:07:04;;;;;;;3.35;2.30;;;19.00;80.90;;;;;;5031309;28;20087;-67
2021/08/10 08:09:30;;;;;;;2.45;2.25;;;19.00;81.20;;;;;;5028075;28;20038;-67
2021/08/10 08:11:56;;;;;;;3.47;2.20;;;19.10;80.20;;;;;;5024950;28;20044;-66
2021/08/10 08:14:23;;;;;;;2.83;1.92;;;19.20;79.10;;;;;;5012513;28;20863;-66
2021/08/10 08:16:49;;;;;;;3.13;2.20;;;19.20;78.10;;;;;;5030596;28;20037;-66
2021/08/10 08:19:14;;;;;;;3.88;2.35;;;19.30;74.90;;;;;;5029615;28;20038;-67
2021/08/10 08:21:40;;;;;;;3.60;2.38;;;19.40;76.60;;;;;;5028627;28;20048;-67
2021/08/10 08:24:06;;;;;;;2.47;1.92;;;19.50;76.30;;;;;;5026705;28;20108;-67
2021/08/10 08:26:32;;;;;;;2.50;2.30;;;19.60;76.80;;;;;;5016377;28;20033;-67
2021/08/10 08:28:59;;;;;;;3.38;2.17;;;19.80;76.60;;;;;;5031216;28;20124;-67
2021/08/10 08:31:25;;;;;;;4.10;2.00;;;19.90;74.00;;;;;;5029525;28;20172;-67
2021/08/10 08:33:51;;;;;;;2.10;1.90;;;20.00;75.00;;;;;;5029972;28;20022;-67
2021/08/10 08:36:17;;;;;;;3.25;2.22;;;20.10;74.30;;;;;;5026923;28;20024;-67
2021/08/10 08:38:43;;;;;;;2.33;2.10;;;20.10;74.80;;;;;;5026934;28;20413;-67
2021/08/10 08:41:10;;;;;;;6.55;2.30;;;20.20;74.20;;;;;;5028099;28;20048;-67
2021/08/10 08:43:38;;;;;;;3.05;2.22;;;20.30;73.40;;;;;;5029360;28;20032;-67
2021/08/10 08:46:04;;;;;;;;;;;20.40;73.20;;;;;;5030133;28;20044;-67
2021/08/10 08:48:31;;;;;;;2.72;2.30;;;20.70;72.70;;;;;;5026363;28;19913;-67
2021/08/10 08:51:00;;;;;;;3.00;2.20;;;20.80;73.10;;;;;;5023369;28;20481;-65
2021/08/10 08:53:26;;;;;;;3.67;2.20;;;20.80;73.40;;;;;;5026568;28;20022;-67
2021/08/10 08:55:53;;;;;;;3.22;2.13;;;20.90;72.90;;;;;;5023067;28;20517;-66
2021/08/10 08:58:18;;;;;;;4.07;2.03;;;20.90;72.20;;;;;;5028251;28;20034;-66
2021/08/10 09:00:44;;;;;;;6.38;2.42;;;21.00;73.00;;;;;;5028359;28;20048;-66
2021/08/10 09:03:10;;;;;;;2.35;2.00;;;21.10;72.00;;;;;;5026879;28;20029;-67
2021/08/10 09:05:39;;;;;;;2.60;2.05;;;21.20;72.60;;;;;;5028070;28;20087;-66
2021/08/10 09:08:31;;;;;;;3.40;2.08;;;21.40;73.10;;;;;;5026184;28;20025;-66
2021/08/10 09:10:59;;;;;;;3.72;2.00;;;21.50;70.40;;;;;;5028048;28;20028;-66
2021/08/10 09:13:25;;;;;;;2.17;1.90;;;21.50;70.50;;;;;;5026502;28;20024;-66
2021/08/10 09:15:51;;;;;;;3.65;2.10;;;21.50;71.60;;;;;;5028249;28;20030;-66
2021/08/10 09:18:22;;;;;;;3.08;2.30;;;21.60;70.90;;;;;;5025735;28;20028;-66
2021/08/10 09:21:08;;;;;;;2.67;2.05;;;21.70;69.50;;;;;;5025031;28;20036;-67
2021/08/10 09:23:39;;;;;;;2.28;1.92;;;21.70;68.60;;;;;;5025979;28;20025;-67
2021/08/10 09:26:07;;;;;;;2.55;2.15;;;21.60;68.10;;;;;;5028877;28;20034;-67
2021/08/10 09:28:33;;;;;;;;;;;21.70;68.10;;;;;;5029037;28;20120;-66
2021/08/10 09:31:28;;;;;;;2.20;2.00;;;21.70;67.40;;;;;;5023055;28;19917;-66
2021/08/10 09:34:02;;;;;;;2.70;2.20;;;21.80;67.20;;;;;;5027329;28;20055;-66
2021/08/10 09:36:29;;;;;;;3.80;1.90;;;21.80;65.80;;;;;;5027015;28;20022;-66
2021/08/10 09:38:57;;;;;;;15.23;10.50;;;22.00;65.80;;;;;;5025357;28;20083;-67
2021/08/10 09:41:24;;;;;;;2.97;2.50;;;22.00;68.10;;;;;;5032975;28;20112;-66
2021/08/10 09:43:50;;;;;;;4.55;1.95;;;22.10;65.60;;;;;;5021300;28;20065;-66
2021/08/10 09:46:22;;;;;;;2.97;1.83;;;22.20;63.50;;;;;;5010775;28;20128;-67
2021/08/10 09:48:57;;;;;;;3.10;1.73;;;22.30;64.80;;;;;;5006636;28;20121;-66
2021/08/10 09:51:24;;;;;;;4.03;1.90;;;22.50;63.00;;;;;;5027202;28;20029;-66
2021/08/10 09:53:58;;;;;;;3.53;1.95;;;22.60;64.40;;;;;;5030590;28;20037;-66
2021/08/10 09:56:36;;;;;;;6.32;1.90;;;22.70;63.60;;;;;;5027145;28;20036;-67
2021/08/10 09:59:02;;;;;;;2.20;1.98;;;22.80;63.50;;;;;;5028281;28;20080;-66
2021/08/10 10:01:36;;;;;;;2.15;1.90;;;22.80;62.60;;;;;;5021089;28;20038;-67
2021/08/10 10:04:24;;;;;;;4.43;1.88;;;22.90;63.30;;;;;;5008033;28;20108;-67
2021/08/10 10:06:52;;;;;;;2.53;2.08;;;22.90;63.30;;;;;;5009021;28;20394;-66
2021/08/10 10:09:19;;;;;;;2.25;1.70;;;23.00;62.50;;;;;;5008601;28;20383;-66
2021/08/10 10:11:47;;;;;;;3.55;1.90;;;23.00;62.30;;;;;;5011040;28;20084;-67
2021/08/10 10:14:13;;;;;;;3.03;1.70;;;22.90;62.50;;;;;;5011726;28;20025;-66
2021/08/10 10:16:42;;;;;;;4.32;2.10;;;22.90;61.00;;;;;;5006028;28;20027;-66
2021/08/10 10:19:10;;;;;;;2.80;1.90;;;22.80;62.20;;;;;;5009629;28;20026;-67
2021/08/10 10:21:38;;;;;;;1.98;1.65;;;22.80;62.50;;;;;;5011860;28;20034;-67
2021/08/10 10:24:04;;;;;;;2.60;1.90;;;22.90;60.40;;;;;;5012617;28;20036;-66
2021/08/10 10:26:32;;;;;;;2.55;2.05;;;23.00;61.10;;;;;;5007613;28;20068;-67
2021/08/10 10:28:58;;;;;;;2.53;2.05;;;23.10;59.70;;;;;;5014410;28;20238;-66
2021/08/10 10:31:24;;;;;;;2.70;1.83;;;23.10;60.50;;;;;;5020941;28;20120;-67
2021/08/10 10:33:52;;;;;;;4.80;2.53;;;23.10;61.10;;;;;;5028989;28;20554;-66
2021/08/10 10:36:18;;;;;;;2.58;1.80;;;23.20;61.20;;;;;;5028475;28;20022;-66
2021/08/10 10:38:45;;;;;;;2.83;1.80;;;23.20;61.10;;;;;;5028966;28;20052;-66
2021/08/10 10:41:13;;;;;;;2.70;1.65;;;23.30;60.30;;;;;;5027573;28;20526;-67
2021/08/10 10:43:41;;;;;;;1.60;1.50;;;23.30;59.50;;;;;;5030346;28;20026;-67
2021/08/10 10:46:25;;;;;;;2.97;1.95;;;23.30;58.50;;;;;;5031986;28;20033;-66
2021/08/10 10:48:51;;;;;;;2.58;1.88;;;23.30;58.50;;;;;;5029850;28;20114;-67
2021/08/10 10:51:24;;;;;;;1.90;1.77;;;23.30;58.70;;;;;;5027178;28;20109;-66
2021/08/10 10:53:49;;;;;;;2.72;1.98;;;23.30;59.00;;;;;;5031009;28;20022;-66
2021/08/10 10:56:24;;;;;;;2.72;1.88;;;23.30;57.60;;;;;;5031742;28;20030;-66
2021/08/10 10:58:50;;;;;;;1.98;1.80;;;23.20;58.40;;;;;;5030971;28;20033;-67
2021/08/10 11:01:29;;;;;;;4.53;1.90;;;23.20;60.10;;;;;;5028979;28;20047;-67
2021/08/10 11:04:06;;;;;;;4.30;1.98;;;23.30;59.60;;;;;;5027395;28;20049;-67
2021/08/10 11:06:34;;;;;;;3.13;2.03;;;23.50;61.60;;;;;;5007397;28;20374;-66
2021/08/10 11:09:02;;;;;;;3.03;2.33;;;23.60;61.20;;;;;;5010903;28;20026;-67
2021/08/10 11:11:50;;;;;;;3.92;2.10;;;23.70;61.30;;;;;;5005815;28;20030;-67
2021/08/10 11:14:37;;;;;;;3.20;2.35;;;23.80;59.80;;;;;;5008562;28;20030;-66
2021/08/10 11:17:11;;;;;;;;;;;23.70;57.60;;;;;;5009365;28;20033;-66
2021/08/10 11:19:45;;;;;;;2.65;2.33;;;23.70;58.30;;;;;;5007010;28;19925;-67
2021/08/10 11:22:21;;;;;;;4.50;2.30;;;23.80;59.90;;;;;;5009429;28;20040;-67
2021/08/10 11:24:52;;;;;;;2.88;2.20;;;24.00;59.70;;;;;;5004765;28;20026;-67
2021/08/10 11:27:40;;;;;;;2.88;2.30;;;23.90;58.80;;;;;;5025001;28;20021;-66
2021/08/10 11:30:07;;;;;;;;;;;24.00;59.20;;;;;;5010682;28;20036;-67
2021/08/10 11:32:47;;;;;;;5.35;2.13;;;24.00;59.50;;;;;;5000582;28;19948;-67
2021/08/10 11:35:35;;;;;;;2.65;2.03;;;24.00;57.40;;;;;;4994053;28;20456;-66
2021/08/10 11:38:00;;;;;;;;;;;24.00;58.10;;;;;;5017176;28;20040;-66
2021/08/10 11:40:31;;;;;;;5.13;2.30;;;24.10;57.60;;;;;;4988301;28;19918;-66
2021/08/10 11:42:57;;;;;;;2.13;1.80;;;24.00;58.60;;;;;;4983827;28;20049;-66
2021/08/10 11:45:23;;;;;;;2.97;2.30;;;23.90;55.90;;;;;;5006875;28;20074;-67
2021/08/10 11:47:59;;;;;;;3.75;2.28;;;23.80;55.90;;;;;;4989828;28;20031;-66
2021/08/10 11:50:30;;;;;;;2.55;2.10;;;23.90;58.30;;;;;;4987544;28;20026;-66
2021/08/10 11:52:56;;;;;;;2.47;2.28;;;23.90;55.40;;;;;;4992800;28;20121;-67
2021/08/10 11:55:29;;;;;;;2.67;2.03;;;23.90;57.00;;;;;;4988637;28;20109;-67
2021/08/10 11:57:56;;;;;;;3.22;2.65;;;24.00;56.80;;;;;;4989110;28;20034;-66
2021/08/10 12:00:22;;;;;;;5.10;2.38;;;24.00;58.20;;;;;;4987554;28;20510;-66
2021/08/10 12:02:48;;;;;;;2.33;2.13;;;23.90;59.20;;;;;;5024323;28;20049;-67
2021/08/10 12:05:14;;;;;;;3.25;2.08;;;23.90;56.20;;;;;;5027655;28;20091;-66
2021/08/10 12:07:54;;;;;;;2.97;2.20;;;23.80;56.80;;;;;;5029590;28;20092;-67
2021/08/10 12:10:22;;;;;;;2.53;2.30;;;23.80;57.10;;;;;;5013087;28;20022;-66
2021/08/10 12:12:47;;;;;;;3.38;2.35;;;23.80;57.70;;;;;;5029639;28;20079;-66
2021/08/10 12:15:39;;;;;;;4.07;2.17;;;23.90;58.90;;;;;;5028688;28;20033;-67
2021/08/10 12:18:05;;;;;;;4.25;2.30;;;23.90;59.50;;;;;;5020796;28;20421;-67
2021/08/10 12:20:31;;;;;;;2.63;2.22;;;24.10;60.00;;;;;;5028956;28;20091;-66
2021/08/10 12:23:09;;;;;;;2.63;2.00;;;24.20;59.80;;;;;;5029545;28;20033;-67
2021/08/10 12:25:35;;;;;;;;;;;24.20;59.90;;;;;;5026567;28;20033;-67
2021/08/10 12:28:08;;;;;;;4.95;2.40;;;24.30;57.10;;;;;;5023627;28;19913;-67
2021/08/10 12:30:36;;;;;;;2.88;2.10;;;24.30;59.50;;;;;;5030733;28;20436;-66
2021/08/10 12:33:33;;;;;;;3.88;2.40;;;24.30;58.40;;;;;;5016085;28;20087;-67
2021/08/10 12:36:07;;;;;;;2.78;2.33;;;24.30;56.60;;;;;;5006643;28;20033;-67
2021/08/10 12:38:35;;;;;;;4.72;2.28;;;24.30;57.70;;;;;;5013282;28;20417;-67
2021/08/10 12:41:01;;;;;;;3.92;2.20;;;24.30;59.30;;;;;;5029102;28;20044;-66
2021/08/10 12:43:27;;;;;;;4.60;2.47;;;24.30;59.40;;;;;;5029564;28;20035;-66
2021/08/10 12:45:54;;;;;;;2.88;2.58;;;24.40;59.40;;;;;;5030368;28;20038;-66
2021/08/10 12:48:31;;;;;;;4.53;2.30;;;24.50;59.40;;;;;;5030598;28;20109;-67
2021/08/10 12:51:05;;;;;;;2.60;2.40;;;24.70;57.60;;;;;;5030216;28;20071;-67
2021/08/10 12:53:35;;;;;;;2.60;2.40;;;24.70;58.10;;;;;;5029487;28;20049;-67
2021/08/10 12:56:03;;;;;;;2.50;2.10;;;24.70;55.90;;;;;;5029396;28;20478;-67